Time;durP1;ratioP1;P1;durP2;ratioP2;P2;SDS_P1;SDS_P2;PMS_P1;PMS_P2;Temp;Humidity;BMP_temperature;BMP_pressure;BME280_temperature;BME280_humidity;BME280_pressure;Samples;Min_cycle;Max_cycle;Signal;HPM_P1;HPM_P2
2022/01/09 00:00:55;;;;;;;10.90;10.38;;;;;;;1.01;100.00;100284.75;4991196;28;20030;-68
2022/01/09 00:03:21;;;;;;;10.65;10.15;;;;;;;1.08;100.00;100290.31;4990927;28;20608;-69
2022/01/09 00:05:46;;;;;;;11.07;10.48;;;;;;;1.16;100.00;100282.72;4991017;28;20061;-67
2022/01/09 00:08:12;;;;;;;10.90;10.40;;;;;;;1.25;100.00;100276.78;4983687;28;20512;-67
2022/01/09 00:10:45;;;;;;;10.77;10.27;;;;;;;1.29;100.00;100277.38;4977183;28;20066;-68
2022/01/09 00:13:10;;;;;;;10.80;10.23;;;;;;;1.43;100.00;100268.44;4979862;28;20457;-68
2022/01/09 00:15:36;;;;;;;10.60;10.10;;;;;;;1.35;100.00;100279.50;4986941;28;20056;-67
2022/01/09 00:18:01;;;;;;;10.30;9.80;;;;;;;1.47;100.00;100268.06;4989418;28;20030;-69
2022/01/09 00:20:27;;;;;;;10.98;10.40;;;;;;;1.43;100.00;100265.81;4982758;28;20408;-64
2022/01/09 00:22:52;;;;;;;10.20;9.70;;;;;;;1.39;100.00;100266.03;4991408;28;20117;-67
2022/01/09 00:25:21;;;;;;;10.82;10.30;;;;;;;1.35;100.00;100255.97;4982618;28;20432;-69
2022/01/09 00:27:47;;;;;;;10.55;10.00;;;;;;;1.29;100.00;100272.13;4989894;28;20480;-66
2022/01/09 00:30:15;;;;;;;11.15;10.55;;;;;;;1.01;100.00;100263.03;4979830;28;20042;-71
2022/01/09 00:32:41;;;;;;;10.68;10.18;;;;;;;0.97;100.00;100262.44;4976118;28;20027;-68
2022/01/09 00:35:07;;;;;;;12.82;12.13;;;;;;;0.92;100.00;100259.34;4976017;28;20483;-65
2022/01/09 00:37:33;;;;;;;11.45;10.85;;;;;;;1.04;100.00;100255.78;4989603;28;20467;-65
2022/01/09 00:39:59;;;;;;;11.00;10.45;;;;;;;0.95;100.00;100248.66;4991824;28;20046;-71
2022/01/09 00:42:24;;;;;;;10.57;10.07;;;;;;;1.02;100.00;100249.00;4989334;28;20116;-66
2022/01/09 00:44:50;;;;;;;10.77;10.27;;;;;;;1.04;100.00;100255.78;4980510;28;20046;-66
2022/01/09 00:47:15;;;;;;;10.32;9.82;;;;;;;1.10;100.00;100246.63;4989141;28;20376;-68
2022/01/09 00:49:41;;;;;;;10.40;9.90;;;;;;;1.05;100.00;100243.56;4980221;28;20027;-65
2022/01/09 00:52:06;;;;;;;10.80;10.25;;;;;;;1.04;100.00;100226.22;4986353;28;20553;-68
2022/01/09 00:54:32;;;;;;;10.80;10.30;;;;;;;0.98;100.00;100226.72;4987437;28;20018;-70
2022/01/09 00:56:57;;;;;;;10.55;10.05;;;;;;;0.95;100.00;100219.09;4976478;28;20086;-64
2022/01/09 00:59:23;;;;;;;10.82;10.27;;;;;;;1.01;100.00;100222.06;4987485;28;20480;-67
2022/01/09 01:01:48;;;;;;;10.40;9.90;;;;;;;0.98;100.00;100216.25;4989450;28;20019;-66
2022/01/09 01:04:14;;;;;;;10.50;10.00;;;;;;;1.08;100.00;100214.56;4987101;28;20034;-66
2022/01/09 01:06:40;;;;;;;10.77;10.27;;;;;;;0.99;100.00;100217.91;4991679;28;20088;-69
2022/01/09 01:09:05;;;;;;;10.63;10.13;;;;;;;0.98;100.00;100200.59;4985404;28;20030;-70
2022/01/09 01:11:31;;;;;;;10.63;10.13;;;;;;;0.89;100.00;100191.69;4983892;28;20033;-68
2022/01/09 01:13:56;;;;;;;10.73;10.23;;;;;;;0.97;100.00;100197.16;4992269;28;20480;-66
2022/01/09 01:16:22;;;;;;;10.50;10.00;;;;;;;0.93;100.00;100194.88;4993679;28;20479;-70
2022/01/09 01:18:47;;;;;;;11.50;10.90;;;;;;;0.92;100.00;100188.00;4983278;28;20370;-69
2022/01/09 01:21:13;;;;;;;10.75;10.25;;;;;;;0.93;100.00;100181.84;4982918;28;20038;-64
2022/01/09 01:23:39;;;;;;;11.50;10.90;;;;;;;0.93;100.00;100179.22;4990478;28;20033;-65
2022/01/09 01:26:05;;;;;;;10.55;10.05;;;;;;;0.97;100.00;100157.16;4992155;28;20125;-69
2022/01/09 01:28:32;;;;;;;10.80;10.30;;;;;;;0.96;100.00;100156.31;4993126;28;20118;-71
2022/01/09 01:30:57;;;;;;;11.57;10.98;;;;;;;0.98;100.00;100143.97;4984525;28;20099;-67
2022/01/09 01:33:23;;;;;;;10.80;10.30;;;;;;;0.99;100.00;100137.78;4984464;28;20518;-66
2022/01/09 01:35:49;;;;;;;11.27;10.68;;;;;;;1.06;100.00;100156.41;4988100;28;20030;-70
2022/01/09 01:38:15;;;;;;;10.85;10.35;;;;;;;1.04;100.00;100143.47;4976885;28;20378;-66
2022/01/09 01:40:40;;;;;;;11.13;10.52;;;;;;;1.04;100.00;100142.66;4976056;28;20121;-65
2022/01/09 01:43:07;;;;;;;11.13;10.63;;;;;;;1.04;100.00;100143.47;4975914;28;20058;-66
2022/01/09 01:45:32;;;;;;;10.80;10.30;;;;;;;1.06;100.00;100140.72;4977529;28;20034;-65
2022/01/09 01:48:05;;;;;;;11.25;10.65;;;;;;;1.12;100.00;100129.78;4981314;28;20030;-67
2022/01/09 01:50:37;;;;;;;10.60;10.10;;;;;;;1.10;100.00;100118.63;4988701;28;20022;-69
2022/01/09 01:53:10;;;;;;;10.98;10.48;;;;;;;1.13;100.00;100120.16;4986189;28;20170;-66
2022/01/09 01:55:37;;;;;;;10.32;9.82;;;;;;;1.17;100.00;100114.56;4981095;28;20078;-69
2022/01/09 01:58:07;;;;;;;11.02;10.43;;;;;;;1.12;100.00;100111.50;4984970;28;20408;-68
2022/01/09 02:00:33;;;;;;;10.85;10.30;;;;;;;1.19;100.00;100099.59;4983792;28;20022;-67
2022/01/09 02:02:59;;;;;;;10.55;10.05;;;;;;;1.14;100.00;100096.53;4984300;28;20120;-66
2022/01/09 02:05:25;;;;;;;10.75;10.25;;;;;;;1.20;100.00;100089.97;4981171;28;20040;-69
2022/01/09 02:07:51;;;;;;;11.43;10.82;;;;;;;1.21;100.00;100096.88;4984492;28;20113;-69
2022/01/09 02:10:17;;;;;;;10.75;10.25;;;;;;;1.18;100.00;100086.69;4983955;28;20034;-69
2022/01/09 02:12:43;;;;;;;10.43;9.93;;;;;;;1.18;100.00;100084.06;4992259;28;20030;-71
2022/01/09 02:15:43;;;;;;;10.88;10.30;;;;;;;1.23;100.00;100077.47;4977631;28;20058;-70
2022/01/09 02:18:12;;;;;;;10.93;10.32;;;;;;;1.25;100.00;100070.38;4968032;28;20043;-68
2022/01/09 02:20:38;;;;;;;10.20;9.70;;;;;;;1.19;100.00;100070.88;4979995;28;20032;-69
2022/01/09 02:23:06;;;;;;;10.52;10.02;;;;;;;1.22;100.00;100068.00;4991861;28;20030;-66
2022/01/09 02:25:33;;;;;;;10.50;10.00;;;;;;;1.23;100.00;100069.66;4990269;28;20066;-64
2022/01/09 02:28:00;;;;;;;10.95;10.35;;;;;;;1.27;100.00;100065.00;4982583;28;20511;-65
2022/01/09 02:30:26;;;;;;;10.40;9.90;;;;;;;1.32;100.00;100060.22;4975978;28;20054;-69
2022/01/09 02:32:51;;;;;;;11.05;10.45;;;;;;;1.30;100.00;100056.91;4975916;28;20472;-69
2022/01/09 02:35:17;;;;;;;11.38;10.77;;;;;;;1.30;100.00;100041.22;4975352;28;20033;-68
2022/01/09 02:37:43;;;;;;;10.30;9.80;;;;;;;1.31;100.00;100048.09;4989342;28;20031;-67
2022/01/09 02:40:08;;;;;;;10.70;10.20;;;;;;;1.43;100.00;100043.66;4980676;28;20026;-63
2022/01/09 02:42:34;;;;;;;10.55;10.05;;;;;;;1.35;100.00;100046.91;4985968;28;20516;-68
2022/01/09 02:45:01;;;;;;;10.52;10.02;;;;;;;1.41;100.00;100043.78;4978993;28;20477;-68
2022/01/09 02:47:33;;;;;;;10.55;10.05;;;;;;;1.35;100.00;100032.06;4974748;28;20105;-65
2022/01/09 02:50:09;;;;;;;10.23;9.73;;;;;;;1.35;100.00;100032.06;4979433;28;20062;-72
2022/01/09 02:52:47;;;;;;;10.93;10.35;;;;;;;1.42;100.00;100032.38;4987299;28;20045;-67
2022/01/09 02:55:14;;;;;;;10.75;10.15;;;;;;;1.37;100.00;100030.13;4991351;28;20046;-63
2022/01/09 02:57:46;;;;;;;10.02;9.52;;;;;;;1.51;100.00;100022.94;4978447;28;20054;-66
2022/01/09 03:00:20;;;;;;;10.20;9.70;;;;;;;1.51;100.00;100020.31;4989397;28;20027;-64
2022/01/09 03:02:46;;;;;;;10.20;9.70;;;;;;;1.41;100.00;100017.66;4984390;28;20031;-67
2022/01/09 03:05:12;;;;;;;10.23;9.73;;;;;;;1.45;100.00;100021.66;4976621;28;20050;-69
2022/01/09 03:07:40;;;;;;;10.52;10.00;;;;;;;1.47;100.00;100013.69;4988363;28;20438;-67
2022/01/09 03:10:06;;;;;;;10.77;10.18;;;;;;;1.55;100.00;100012.09;4989854;28;20507;-63
2022/01/09 03:12:33;;;;;;;10.25;9.75;;;;;;;1.55;100.00;99998.22;4983412;28;20504;-68
2022/01/09 03:14:59;;;;;;;10.02;9.52;;;;;;;1.38;100.00;99997.81;4981659;28;20066;-65
2022/01/09 03:17:24;;;;;;;10.60;10.10;;;;;;;1.43;100.00;100000.06;4990420;28;20038;-65
2022/01/09 03:19:51;;;;;;;10.60;10.10;;;;;;;1.36;100.00;100001.53;4978796;28;20038;-65
2022/01/09 03:22:16;;;;;;;10.55;10.05;;;;;;;1.38;100.00;100004.84;4983528;28;20127;-65
2022/01/09 03:24:42;;;;;;;10.95;10.35;;;;;;;1.33;100.00;100001.78;4992177;28;20069;-65
2022/01/09 03:27:09;;;;;;;10.50;10.00;;;;;;;1.29;100.00;100018.66;4979131;28;20121;-67
2022/01/09 03:29:35;;;;;;;10.40;9.90;;;;;;;1.26;100.00;100011.94;4981393;28;20031;-65
2022/01/09 03:32:00;;;;;;;11.27;10.68;;;;;;;1.26;100.00;100011.94;4990499;28;20164;-66
2022/01/09 03:34:26;;;;;;;10.70;10.20;;;;;;;1.26;100.00;100000.66;4992112;28;20093;-67
2022/01/09 03:36:52;;;;;;;10.80;10.23;;;;;;;1.26;100.00;99998.88;4989627;28;20035;-66
2022/01/09 03:39:17;;;;;;;10.68;10.18;;;;;;;1.23;100.00;99988.66;4975816;28;20027;-68
2022/01/09 03:41:43;;;;;;;10.45;9.95;;;;;;;1.27;100.00;100008.34;4972791;28;20035;-66
2022/01/09 03:44:08;;;;;;;10.45;9.95;;;;;;;1.28;100.00;100002.16;4977088;28;20035;-65
2022/01/09 03:46:34;;;;;;;10.68;10.18;;;;;;;1.30;100.00;99997.63;4985186;28;20149;-67
2022/01/09 03:48:59;;;;;;;11.38;10.77;;;;;;;1.30;100.00;100005.47;4983384;28;20041;-69
2022/01/09 03:51:31;;;;;;;10.00;9.50;;;;;;;1.26;100.00;99998.88;4990123;28;20038;-64
2022/01/09 03:53:57;;;;;;;10.32;9.82;;;;;;;1.24;100.00;100005.16;4994541;28;20026;-70
2022/01/09 03:56:22;;;;;;;10.40;9.90;;;;;;;1.26;100.00;99984.97;4994759;28;20042;-67
2022/01/09 03:58:48;;;;;;;10.30;9.80;;;;;;;1.20;100.00;99981.09;4979597;28;20055;-68
2022/01/09 04:01:13;;;;;;;10.60;10.10;;;;;;;1.25;100.00;99983.28;4993339;28;20046;-66
2022/01/09 04:03:39;;;;;;;10.80;10.25;;;;;;;1.25;100.00;99984.16;4993978;28;20033;-65
2022/01/09 04:06:04;;;;;;;11.25;10.70;;;;;;;1.25;100.00;99980.69;4981218;28;20041;-66
2022/01/09 04:08:31;;;;;;;10.68;10.18;;;;;;;1.23;100.00;99977.38;4990820;28;20038;-68
2022/01/09 04:10:57;;;;;;;11.60;11.00;;;;;;;1.24;100.00;99974.63;4984765;28;20121;-68
2022/01/09 04:13:22;;;;;;;10.80;10.30;;;;;;;1.24;100.00;99976.41;4983183;28;20125;-69
2022/01/09 04:15:49;;;;;;;10.43;9.93;;;;;;;1.24;100.00;99977.25;4981529;28;20537;-66
2022/01/09 04:18:16;;;;;;;11.38;10.77;;;;;;;1.20;100.00;99975.84;4985228;28;20521;-65
2022/01/09 04:20:41;;;;;;;10.82;10.32;;;;;;;1.25;100.00;99985.91;4987271;28;20030;-67
2022/01/09 04:23:06;;;;;;;11.35;10.75;;;;;;;1.26;100.00;99971.91;4978539;28;20035;-65
2022/01/09 04:25:32;;;;;;;11.40;10.80;;;;;;;1.24;100.00;99961.56;4986428;28;20054;-66
2022/01/09 04:27:57;;;;;;;10.93;10.43;;;;;;;1.22;100.00;99979.16;4983306;28;20026;-68
2022/01/09 04:30:23;;;;;;;11.30;10.70;;;;;;;1.21;100.00;99974.91;4986836;28;20488;-70
2022/01/09 04:32:48;;;;;;;11.20;10.70;;;;;;;1.24;100.00;99971.19;4985777;28;20022;-68
2022/01/09 04:35:14;;;;;;;11.27;10.68;;;;;;;1.28;100.00;99975.22;4980214;28;20062;-65
2022/01/09 04:37:40;;;;;;;11.07;10.50;;;;;;;1.26;100.00;99971.91;4987863;28;20046;-65
2022/01/09 04:40:10;;;;;;;11.15;10.55;;;;;;;1.24;100.00;99969.41;4990288;28;20399;-66
2022/01/09 04:42:43;;;;;;;10.75;10.23;;;;;;;1.20;100.00;99949.72;4992158;28;20073;-63
2022/01/09 04:45:10;;;;;;;11.07;10.48;;;;;;;1.27;100.00;99957.88;4980874;28;20033;-63
2022/01/09 04:47:35;;;;;;;10.98;10.38;;;;;;;1.29;100.00;99953.34;4978137;28;20400;-67
2022/01/09 04:50:02;;;;;;;11.20;10.60;;;;;;;1.31;100.00;99957.47;4985062;28;20037;-67
2022/01/09 04:52:33;;;;;;;10.30;9.80;;;;;;;1.31;100.00;99957.47;4994785;28;20027;-64
2022/01/09 04:54:59;;;;;;;10.57;10.07;;;;;;;1.31;100.00;99940.97;4990812;28;20062;-65
2022/01/09 04:57:24;;;;;;;10.65;10.10;;;;;;;1.31;100.00;99960.09;4982408;28;20043;-67
2022/01/09 04:59:50;;;;;;;10.80;10.30;;;;;;;1.30;100.00;99945.38;4989341;28;20025;-67
2022/01/09 05:02:15;;;;;;;10.60;10.10;;;;;;;1.29;100.00;99951.56;4985823;28;20130;-65
2022/01/09 05:04:41;;;;;;;11.13;10.52;;;;;;;1.33;100.00;99950.38;4986308;28;20030;-65
2022/01/09 05:07:06;;;;;;;10.50;10.00;;;;;;;1.35;100.00;99937.97;4979371;28;20023;-64
2022/01/09 05:09:32;;;;;;;10.63;10.13;;;;;;;1.31;100.00;99940.97;4992508;28;20023;-64
2022/01/09 05:11:58;;;;;;;10.80;10.23;;;;;;;1.29;100.00;99948.13;4990785;28;20399;-65
2022/01/09 05:14:23;;;;;;;10.50;10.00;;;;;;;1.34;100.00;99930.28;4986983;28;20076;-67
2022/01/09 05:16:50;;;;;;;10.85;10.27;;;;;;;1.31;100.00;99944.41;4986687;28;20877;-68
2022/01/09 05:19:21;;;;;;;10.65;10.15;;;;;;;1.36;100.00;99930.97;4987922;28;20373;-67
2022/01/09 05:21:48;;;;;;;11.15;10.55;;;;;;;1.33;100.00;99939.91;4984736;28;20022;-64
2022/01/09 05:24:14;;;;;;;10.82;10.32;;;;;;;1.32;100.00;99932.19;4992471;28;20046;-69
2022/01/09 05:26:40;;;;;;;12.00;11.30;;;;;;;1.32;100.00;99924.34;4979462;28;20077;-66
2022/01/09 05:29:06;;;;;;;10.45;9.95;;;;;;;1.32;100.00;99927.81;4985713;28;20062;-68
2022/01/09 05:31:32;;;;;;;10.70;10.20;;;;;;;1.27;100.00;99937.81;4977868;28;20168;-69
2022/01/09 05:33:57;;;;;;;11.60;11.00;;;;;;;1.28;100.00;99910.72;4985003;28;20397;-65
2022/01/09 05:36:22;;;;;;;10.75;10.25;;;;;;;1.29;100.00;99914.97;4982314;28;20481;-65
2022/01/09 05:38:48;;;;;;;11.30;10.70;;;;;;;1.28;100.00;99897.66;4981085;28;20100;-67
2022/01/09 05:41:13;;;;;;;11.35;10.75;;;;;;;1.28;100.00;99900.28;4986411;28;20022;-65
2022/01/09 05:43:40;;;;;;;13.00;12.18;;;;;;;1.30;100.00;99895.72;4993374;28;20030;-65
2022/01/09 05:46:06;;;;;;;10.65;10.15;;;;;;;1.30;100.00;99894.91;4985302;28;20039;-66
2022/01/09 05:48:31;;;;;;;10.70;10.20;;;;;;;1.26;100.00;99890.91;4979585;28;20023;-67
2022/01/09 05:50:57;;;;;;;13.80;12.85;;;;;;;1.27;100.00;99890.78;4985992;28;20074;-65
2022/01/09 05:53:22;;;;;;;11.15;10.60;;;;;;;1.25;100.00;99899.69;4989680;28;20022;-70
2022/01/09 05:55:48;;;;;;;13.30;12.48;;;;;;;1.25;100.00;99884.88;4977656;28;20046;-68
2022/01/09 05:58:13;;;;;;;12.10;11.40;;;;;;;1.29;100.00;99894.09;4985193;28;20037;-66
2022/01/09 06:00:39;;;;;;;11.45;10.85;;;;;;;1.31;100.00;99889.53;4992557;28;20026;-65
2022/01/09 06:03:05;;;;;;;11.93;11.32;;;;;;;1.29;100.00;99888.84;4991352;28;20030;-66
2022/01/09 06:05:30;;;;;;;10.98;10.43;;;;;;;1.35;100.00;99882.28;4989958;28;20026;-66
2022/01/09 06:07:56;;;;;;;11.95;11.25;;;;;;;1.33;100.00;99879.81;4992864;28;20046;-66
2022/01/09 06:10:21;;;;;;;11.88;11.18;;;;;;;1.32;100.00;99877.31;4990185;28;20072;-66
2022/01/09 06:12:47;;;;;;;11.18;10.57;;;;;;;1.32;100.00;99874.69;4990325;28;20055;-67
2022/01/09 06:15:12;;;;;;;12.07;11.38;;;;;;;1.31;100.00;99879.09;4977604;28;20074;-66
2022/01/09 06:17:40;;;;;;;11.10;10.50;;;;;;;1.28;100.00;99881.16;4987684;28;20075;-66
2022/01/09 06:20:06;;;;;;;11.25;10.65;;;;;;;1.32;100.00;99887.75;4991690;28;20113;-65
2022/01/09 06:22:32;;;;;;;10.82;10.27;;;;;;;1.36;100.00;99897.81;4990329;28;20431;-66
2022/01/09 06:24:57;;;;;;;11.10;10.52;;;;;;;1.29;100.00;99888.03;4991616;28;20108;-69
2022/01/09 06:27:23;;;;;;;10.70;10.20;;;;;;;1.23;100.00;99878.09;4987588;28;20035;-66
2022/01/09 06:29:49;;;;;;;12.88;12.18;;;;;;;1.28;100.00;99883.75;4987735;28;20062;-68
2022/01/09 06:32:14;;;;;;;12.18;11.55;;;;;;;1.23;100.00;99872.88;4978153;28;20038;-66
2022/01/09 06:34:42;;;;;;;12.18;11.57;;;;;;;1.30;100.00;99863.56;4980405;28;20465;-69
2022/01/09 06:37:10;;;;;;;12.00;11.40;;;;;;;1.30;100.00;99874.00;4980563;28;20037;-65
2022/01/09 06:39:36;;;;;;;11.50;10.90;;;;;;;1.24;100.00;99870.13;4978041;28;20022;-68
2022/01/09 06:42:02;;;;;;;11.10;10.50;;;;;;;1.28;100.00;99870.69;4981729;28;20038;-66
2022/01/09 06:44:28;;;;;;;11.50;10.90;;;;;;;1.22;100.00;99864.22;4983312;28;20026;-64
2022/01/09 06:46:53;;;;;;;11.90;11.30;;;;;;;1.25;100.00;99865.72;4982587;28;20306;-66
2022/01/09 06:49:18;;;;;;;11.57;10.98;;;;;;;1.30;100.00;99853.09;4980992;28;20153;-69
2022/01/09 06:51:44;;;;;;;10.30;9.80;;;;;;;1.32;100.00;99872.06;4975889;28;20153;-68
2022/01/09 06:54:09;;;;;;;11.57;10.93;;;;;;;1.28;100.00;99855.84;4985845;28;20487;-68
2022/01/09 06:56:35;;;;;;;11.35;10.75;;;;;;;1.33;100.00;99855.47;4984499;28;20137;-67
2022/01/09 06:59:00;;;;;;;10.95;10.35;;;;;;;1.35;100.00;99856.97;4987635;28;20036;-64
2022/01/09 07:01:26;;;;;;;12.05;11.35;;;;;;;1.31;100.00;99847.72;4979027;28;20026;-67
2022/01/09 07:03:51;;;;;;;12.40;11.70;;;;;;;1.38;100.00;99848.03;4986685;28;20034;-69
2022/01/09 07:06:17;;;;;;;12.70;11.90;;;;;;;1.35;100.00;99859.59;4981197;28;20030;-67
2022/01/09 07:08:43;;;;;;;11.68;10.98;;;;;;;1.37;100.00;99846.38;4981560;28;20022;-67
2022/01/09 07:11:09;;;;;;;10.88;10.38;;;;;;;1.34;100.00;99857.94;4979906;28;20092;-66
2022/01/09 07:13:34;;;;;;;12.63;11.93;;;;;;;1.36;100.00;99856.00;4973736;28;20412;-63
2022/01/09 07:16:00;;;;;;;10.90;10.30;;;;;;;1.42;100.00;99838.16;4986413;28;20049;-68
2022/01/09 07:18:25;;;;;;;11.82;11.13;;;;;;;1.37;100.00;99839.38;4981877;28;20061;-71
2022/01/09 07:20:51;;;;;;;11.18;10.57;;;;;;;1.48;100.00;99835.03;4978271;28;20026;-69
2022/01/09 07:23:17;;;;;;;10.60;10.10;;;;;;;1.50;100.00;99839.16;4985724;28;20480;-69
2022/01/09 07:25:42;;;;;;;10.93;10.32;;;;;;;1.51;100.00;99832.94;4984648;28;20113;-66
2022/01/09 07:28:08;;;;;;;11.52;10.85;;;;;;;1.58;100.00;99838.47;4984564;28;20030;-67
2022/01/09 07:30:33;;;;;;;10.65;10.15;;;;;;;1.58;100.00;99847.16;4981632;28;20031;-68
2022/01/09 07:32:59;;;;;;;12.07;11.43;;;;;;;1.64;100.00;99845.78;4983553;28;20126;-65
2022/01/09 07:35:25;;;;;;;10.93;10.32;;;;;;;1.66;100.00;99849.09;4985672;28;20427;-67
2022/01/09 07:37:50;;;;;;;10.90;10.30;;;;;;;1.69;100.00;99846.22;4985120;28;20062;-69
2022/01/09 07:40:17;;;;;;;11.10;10.50;;;;;;;1.69;100.00;99856.69;4988088;28;20507;-65
2022/01/09 07:42:42;;;;;;;11.73;11.13;;;;;;;1.73;100.00;99841.53;4979637;28;20033;-65
2022/01/09 07:45:09;;;;;;;11.45;10.82;;;;;;;1.80;100.00;99851.31;4982765;28;20030;-67
2022/01/09 07:47:37;;;;;;;10.73;10.23;;;;;;;1.80;100.00;99853.09;4983950;28;20030;-64
2022/01/09 07:50:05;;;;;;;11.10;10.50;;;;;;;1.88;100.00;99851.47;4981729;28;20029;-68
2022/01/09 07:52:34;;;;;;;10.48;9.98;;;;;;;1.87;100.00;99851.59;4979791;28;20031;-64
2022/01/09 07:55:00;;;;;;;11.90;11.30;;;;;;;1.88;100.00;99853.25;4984649;28;20080;-64
2022/01/09 07:57:26;;;;;;;10.73;10.13;;;;;;;1.91;100.00;99845.97;4983428;28;20049;-68
2022/01/09 07:59:51;;;;;;;11.20;10.60;;;;;;;1.97;100.00;99847.19;4986087;28;20022;-71
2022/01/09 08:02:17;;;;;;;10.77;10.20;;;;;;;2.02;100.00;99841.56;4983424;28;20023;-65
2022/01/09 08:04:42;;;;;;;11.60;10.90;;;;;;;2.15;100.00;99835.13;4976488;28;20039;-63
2022/01/09 08:07:08;;;;;;;12.32;11.65;;;;;;;2.07;100.00;99842.81;4981579;28;20227;-63
2022/01/09 08:09:33;;;;;;;11.57;10.98;;;;;;;2.18;100.00;99839.22;4977770;28;20038;-69
2022/01/09 08:11:59;;;;;;;11.13;10.52;;;;;;;2.12;100.00;99830.13;4979288;28;20058;-64
2022/01/09 08:14:24;;;;;;;11.10;10.50;;;;;;;2.11;100.00;99831.09;4981302;28;20526;-66
2022/01/09 08:16:50;;;;;;;12.68;11.98;;;;;;;2.38;100.00;99825.19;4975196;28;20488;-64
2022/01/09 08:19:15;;;;;;;14.73;13.70;;;;;;;2.34;100.00;99823.78;4976203;28;20509;-69
2022/01/09 08:21:40;;;;;;;11.07;10.48;;;;;;;2.40;100.00;99810.16;4979681;28;20030;-66
2022/01/09 08:24:06;;;;;;;10.85;10.25;;;;;;;2.36;100.00;99814.03;4985038;28;20149;-67
2022/01/09 08:26:32;;;;;;;11.43;10.82;;;;;;;2.44;100.00;99810.72;4977931;28;20023;-65
2022/01/09 08:28:57;;;;;;;10.32;9.82;;;;;;;2.54;100.00;99806.28;4979621;28;20034;-68
2022/01/09 08:31:23;;;;;;;11.68;11.02;;;;;;;2.57;100.00;99799.91;4978746;28;20038;-69
2022/01/09 08:33:49;;;;;;;11.40;10.80;;;;;;;2.57;100.00;99789.44;4978499;28;20038;-64
2022/01/09 08:36:15;;;;;;;11.45;10.85;;;;;;;2.73;100.00;99795.78;4978790;28;20085;-66
2022/01/09 08:38:42;;;;;;;11.75;11.05;;;;;;;2.80;100.00;99784.72;4980075;28;20149;-68
2022/01/09 08:41:07;;;;;;;11.15;10.57;;;;;;;2.79;100.00;99783.88;4982101;28;20045;-66
2022/01/09 08:43:36;;;;;;;11.85;11.15;;;;;;;2.73;100.00;99777.44;4980333;28;20380;-65
2022/01/09 08:46:01;;;;;;;13.07;12.27;;;;;;;2.77;100.00;99781.41;4985207;28;20026;-69
2022/01/09 08:48:27;;;;;;;12.15;11.50;;;;;;;2.82;100.00;99775.75;4982346;28;20037;-66
2022/01/09 08:50:52;;;;;;;11.38;10.75;;;;;;;2.71;100.00;99771.50;4988289;28;20026;-68
2022/01/09 08:53:18;;;;;;;10.63;10.07;;;;;;;2.90;100.00;99759.31;4988933;28;20395;-67
2022/01/09 08:55:43;;;;;;;11.70;11.00;;;;;;;2.95;100.00;99763.16;4988305;28;20142;-64
2022/01/09 08:58:08;;;;;;;13.32;12.43;;;;;;;3.02;100.00;99766.84;4986719;28;20439;-68
2022/01/09 09:00:34;;;;;;;11.43;10.77;;;;;;;2.88;100.00;99762.09;4988807;28;20426;-67
2022/01/09 09:02:59;;;;;;;10.27;9.77;;;;;;;2.90;100.00;99760.13;4989307;28;20396;-64
2022/01/09 09:05:25;;;;;;;10.70;10.20;;;;;;;3.12;100.00;99751.06;4980501;28;20447;-66
2022/01/09 09:07:50;;;;;;;10.80;10.20;;;;;;;3.17;100.00;99748.03;4989825;28;20431;-67
2022/01/09 09:10:16;;;;;;;10.05;9.55;;;;;;;2.86;100.00;99740.41;4986069;28;20072;-66
2022/01/09 09:12:42;;;;;;;10.98;10.38;;;;;;;2.93;100.00;99741.50;4984127;28;20038;-67
2022/01/09 09:15:08;;;;;;;12.02;11.27;;;;;;;2.92;100.00;99734.59;4986532;28;20042;-67
2022/01/09 09:17:34;;;;;;;11.20;10.60;;;;;;;2.96;100.00;99743.03;4986511;28;20046;-64
2022/01/09 09:20:00;;;;;;;11.38;10.73;;;;;;;2.87;100.00;99743.91;4987530;28;20221;-68
2022/01/09 09:22:25;;;;;;;11.05;10.45;;;;;;;3.05;100.00;99745.59;4989748;28;20125;-69
2022/01/09 09:24:51;;;;;;;11.43;10.73;;;;;;;2.71;100.00;99753.16;4992794;28;20030;-69
2022/01/09 09:27:19;;;;;;;11.27;10.68;;;;;;;2.59;100.00;99750.88;4980968;28;20038;-67
2022/01/09 09:29:45;;;;;;;11.95;11.35;;;;;;;2.60;100.00;99749.91;4982848;28;20156;-70
2022/01/09 09:32:10;;;;;;;11.10;10.50;;;;;;;2.47;100.00;99750.22;4982868;28;20508;-69
2022/01/09 09:34:38;;;;;;;11.80;11.20;;;;;;;2.49;100.00;99746.47;4979202;28;20177;-67
2022/01/09 09:37:04;;;;;;;11.65;11.02;;;;;;;2.50;100.00;99747.34;4979535;28;20536;-68
2022/01/09 09:39:29;;;;;;;10.90;10.30;;;;;;;2.51;100.00;99748.16;4980490;28;20164;-65
2022/01/09 09:41:55;;;;;;;11.32;10.70;;;;;;;2.73;100.00;99747.81;4979431;28;20022;-69
2022/01/09 09:44:20;;;;;;;11.57;10.98;;;;;;;2.61;100.00;99752.38;4979128;28;20042;-66
2022/01/09 09:46:51;;;;;;;11.70;11.10;;;;;;;2.53;100.00;99747.03;4979452;28;20384;-69
2022/01/09 09:49:17;;;;;;;11.82;11.23;;;;;;;2.70;100.00;99745.44;4978870;28;20109;-67
2022/01/09 09:51:43;;;;;;;11.07;10.48;;;;;;;2.69;100.00;99733.34;4986692;28;20031;-64
2022/01/09 09:54:09;;;;;;;11.27;10.68;;;;;;;2.64;100.00;99740.78;4983989;28;20034;-68
2022/01/09 09:56:34;;;;;;;11.07;10.57;;;;;;;2.66;100.00;99734.47;4981301;28;20085;-70
2022/01/09 09:59:01;;;;;;;11.23;10.63;;;;;;;2.98;100.00;99736.66;4988747;28;20030;-67
2022/01/09 10:01:32;;;;;;;10.57;10.07;;;;;;;2.82;100.00;99736.47;4981495;28;20033;-68
2022/01/09 10:04:00;;;;;;;10.95;10.35;;;;;;;2.73;100.00;99732.91;4988015;28;20033;-69
2022/01/09 10:06:38;;;;;;;11.18;10.57;;;;;;;2.83;100.00;99747.75;4981260;28;20714;-64
2022/01/09 10:09:15;;;;;;;10.50;9.95;;;;;;;2.98;100.00;99736.66;4983094;28;20117;-67
2022/01/09 10:12:01;;;;;;;10.70;10.10;;;;;;;2.92;100.00;99734.59;4977503;28;20129;-67
2022/01/09 10:14:33;;;;;;;11.45;10.75;;;;;;;2.91;100.00;99732.97;4983628;28;20046;-63
2022/01/09 10:17:12;;;;;;;10.07;9.57;;;;;;;2.98;100.00;99726.19;4983992;28;20034;-65
2022/01/09 10:20:04;;;;;;;9.80;9.30;;;;;;;2.99;100.00;99725.19;4984166;28;20137;-64
2022/01/09 10:22:39;;;;;;;11.10;10.50;;;;;;;2.94;100.00;99729.25;4977723;28;20031;-68
2022/01/09 10:25:22;;;;;;;10.20;9.70;;;;;;;3.00;100.00;99719.00;4977482;28;20042;-67
2022/01/09 10:27:50;;;;;;;11.07;10.48;;;;;;;2.98;100.00;99723.56;4987052;28;20160;-69
2022/01/09 10:30:20;;;;;;;10.88;10.27;;;;;;;2.96;100.00;99730.75;4979588;28;20039;-67
2022/01/09 10:32:46;;;;;;;11.18;10.57;;;;;;;2.95;100.00;99716.00;4985569;28;20026;-69
2022/01/09 10:35:18;;;;;;;10.63;10.07;;;;;;;2.95;100.00;99715.19;4980856;28;20384;-65
2022/01/09 10:37:50;;;;;;;10.80;10.20;;;;;;;2.98;100.00;99720.94;4988815;28;20046;-66
2022/01/09 10:40:28;;;;;;;11.52;10.82;;;;;;;2.97;100.00;99719.28;4981208;28;20042;-68
2022/01/09 10:43:10;;;;;;;10.60;10.07;;;;;;;3.15;100.00;99710.63;4976630;28;20058;-67
2022/01/09 10:45:39;;;;;;;10.77;10.18;;;;;;;3.22;100.00;99706.44;4984766;28;20042;-68
2022/01/09 10:48:13;;;;;;;10.52;10.02;;;;;;;3.13;100.00;99702.09;4981567;28;20062;-68
2022/01/09 10:50:41;;;;;;;11.23;10.57;;;;;;;3.26;100.00;99706.03;4978805;28;20034;-68
2022/01/09 10:53:30;;;;;;;10.98;10.38;;;;;;;3.39;100.00;99700.44;4982971;28;20038;-68
2022/01/09 10:56:01;;;;;;;10.88;10.27;;;;;;;3.01;100.00;99686.59;4975041;28;20061;-67
2022/01/09 10:58:28;;;;;;;11.48;10.77;;;;;;;3.07;100.00;99697.44;4978464;28;20481;-65
2022/01/09 11:01:23;;;;;;;10.35;9.85;;;;;;;3.01;100.00;99691.84;4983152;28;20038;-66
2022/01/09 11:04:07;;;;;;;10.90;10.30;;;;;;;3.05;100.00;99685.31;4987190;28;20048;-67
2022/01/09 11:06:35;;;;;;;11.25;10.65;;;;;;;3.10;100.00;99684.06;4989498;28;20092;-70
2022/01/09 11:09:03;;;;;;;10.65;10.05;;;;;;;3.07;100.00;99682.53;4979135;28;20062;-70
2022/01/09 11:11:38;;;;;;;10.85;10.25;;;;;;;3.07;100.00;99677.31;4977347;28;20076;-71
2022/01/09 11:14:07;;;;;;;10.75;10.18;;;;;;;3.12;100.00;99679.50;4984422;28;20034;-67
2022/01/09 11:16:34;;;;;;;11.43;10.75;;;;;;;3.15;100.00;99677.38;4989572;28;20460;-71